createdAt,value
2023-12-22T00:00:33.687Z,96589.47
2023-12-22T00:03:01.763Z,96589.69
2023-12-22T00:05:28.498Z,96598.72
2023-12-22T00:07:55.272Z,96590.31
2023-12-22T00:10:22.383Z,96588.25
2023-12-22T00:12:49.014Z,96588.34
2023-12-22T00:15:15.795Z,96583.34
2023-12-22T00:17:42.474Z,96608.06
2023-12-22T00:20:11.618Z,96604.16
2023-12-22T00:22:38.339Z,96598.19
2023-12-22T00:25:05.751Z,96591.34
2023-12-22T00:27:32.456Z,96585.88
2023-12-22T00:30:01.504Z,96568.38
2023-12-22T00:32:28.199Z,96565.75
2023-12-22T00:34:54.889Z,96575.63
2023-12-22T00:37:22.959Z,96591.22
2023-12-22T00:39:52.806Z,96604.84
2023-12-22T00:42:20.430Z,96600.03
2023-12-22T00:44:47.084Z,96602.75
2023-12-22T00:47:13.764Z,96600.84
2023-12-22T00:49:40.553Z,96608.06
2023-12-22T00:52:07.380Z,96594.88
2023-12-22T00:54:35.366Z,96614.91
2023-12-22T00:57:02.017Z,96608.31
2023-12-22T00:59:28.779Z,96607.91
2023-12-22T01:01:55.578Z,96590.59
2023-12-22T01:04:22.391Z,96607.31
2023-12-22T01:06:49.144Z,96614.19
2023-12-22T01:09:15.820Z,96599.38
2023-12-22T01:11:43.820Z,96610.59
2023-12-22T01:14:10.465Z,96603.38
2023-12-22T01:16:37.197Z,96599.31
2023-12-22T01:19:04.041Z,96623.47
2023-12-22T01:21:30.724Z,96647.91
2023-12-22T01:23:57.428Z,96640.53
2023-12-22T01:26:24.086Z,96643.94
2023-12-22T01:28:52.180Z,96660.94
2023-12-22T01:31:19.038Z,96665.03
2023-12-22T01:33:45.862Z,96665.34
2023-12-22T01:36:12.570Z,96718.50
2023-12-22T01:38:39.274Z,96685.81
2023-12-22T01:41:05.930Z,96680.09
2023-12-22T01:43:32.746Z,96694.81
2023-12-22T01:46:00.774Z,96694.25
2023-12-22T01:48:27.537Z,96698.84
2023-12-22T01:50:54.358Z,96677.91
2023-12-22T01:53:21.241Z,96673.28
2023-12-22T01:55:48.231Z,96684.88
2023-12-22T01:58:15.028Z,96677.34
2023-12-22T02:00:41.821Z,96678.16
2023-12-22T02:03:10.079Z,96689.13
2023-12-22T02:05:36.955Z,96684.44
2023-12-22T02:08:04.202Z,96695.50
2023-12-22T02:10:30.934Z,96669.78
2023-12-22T02:12:57.612Z,96660.78
2023-12-22T02:15:24.306Z,96680.38
2023-12-22T02:17:54.178Z,96689.28
2023-12-22T02:20:22.336Z,96670.50
2023-12-22T02:22:53.346Z,96659.47
2023-12-22T02:25:20.294Z,96675.50
2023-12-22T02:27:50.196Z,96650.25
2023-12-22T02:30:20.703Z,96640.00
2023-12-22T02:32:48.935Z,96634.13
2023-12-22T02:35:17.953Z,96642.47
2023-12-22T02:37:45.286Z,96646.81
2023-12-22T02:40:13.503Z,96637.66
2023-12-22T02:42:40.246Z,96641.34
2023-12-22T02:45:07.536Z,96663.94
2023-12-22T02:47:34.338Z,96675.75
2023-12-22T02:50:01.088Z,96652.31
2023-12-22T02:52:27.840Z,96650.63
2023-12-22T02:54:54.591Z,96636.31
2023-12-22T02:57:22.608Z,96640.28
2023-12-22T02:59:49.411Z,96645.97
2023-12-22T03:02:16.050Z,96649.97
2023-12-22T03:04:42.744Z,96659.97
2023-12-22T03:07:09.423Z,96662.50
2023-12-22T03:09:38.495Z,96658.81
2023-12-22T03:12:07.003Z,96665.34
2023-12-22T03:14:34.984Z,96666.81
2023-12-22T03:17:01.760Z,96685.06
2023-12-22T03:19:28.578Z,96692.47
2023-12-22T03:21:55.343Z,96691.72
2023-12-22T03:24:21.996Z,96680.47
2023-12-22T03:26:48.803Z,96663.16
2023-12-22T03:29:15.569Z,96680.28
2023-12-22T03:31:43.596Z,96676.41
2023-12-22T03:34:10.312Z,96681.97
2023-12-22T03:36:37.038Z,96702.03
2023-12-22T03:39:03.765Z,96705.63
2023-12-22T03:41:30.462Z,96691.94
2023-12-22T03:43:57.236Z,96682.13
2023-12-22T03:46:24.118Z,96668.41
2023-12-22T03:48:52.224Z,96665.84
2023-12-22T03:51:19.093Z,96672.88
2023-12-22T03:53:45.764Z,96681.50
2023-12-22T03:56:12.430Z,96676.97
2023-12-22T03:58:41.256Z,96660.94
2023-12-22T04:01:08.035Z,96678.63
2023-12-22T04:03:34.926Z,96683.56
2023-12-22T04:06:04.291Z,96691.56
2023-12-22T04:08:31.040Z,96695.28
2023-12-22T04:10:57.817Z,96706.69
2023-12-22T04:13:24.553Z,96711.47
2023-12-22T04:15:51.551Z,96702.09
2023-12-22T04:18:18.326Z,96711.38
2023-12-22T04:20:45.150Z,96706.13
2023-12-22T04:23:13.160Z,96719.72
2023-12-22T04:25:39.877Z,96696.50
2023-12-22T04:28:06.562Z,96693.91
2023-12-22T04:30:34.479Z,96697.41
2023-12-22T04:33:01.422Z,96700.63
2023-12-22T04:35:28.323Z,96696.59
2023-12-22T04:37:55.032Z,96689.06
2023-12-22T04:40:23.114Z,96682.75
2023-12-22T04:42:49.987Z,96692.78
2023-12-22T04:45:16.690Z,96700.22
2023-12-22T04:47:43.479Z,96685.19
2023-12-22T04:50:10.376Z,96675.31
2023-12-22T04:52:37.276Z,96700.63
2023-12-22T04:55:04.675Z,96692.78
2023-12-22T04:57:32.699Z,96681.44
2023-12-22T04:59:59.415Z,96694.31
2023-12-22T05:02:26.231Z,96698.41
2023-12-22T05:04:52.935Z,96704.56
2023-12-22T05:07:19.638Z,96712.69
2023-12-22T05:09:46.450Z,96723.38
2023-12-22T05:12:13.186Z,96720.69
2023-12-22T05:14:41.169Z,96726.19
2023-12-22T05:17:07.890Z,96715.50
2023-12-22T05:19:34.592Z,96710.56
2023-12-22T05:22:01.496Z,96716.97
2023-12-22T05:24:28.176Z,96716.25
2023-12-22T05:26:54.879Z,96726.19
2023-12-22T05:29:21.702Z,96732.81
2023-12-22T05:31:49.975Z,96744.75
2023-12-22T05:34:16.682Z,96745.25
2023-12-22T05:36:43.492Z,96758.38
2023-12-22T05:39:10.196Z,96747.09
2023-12-22T05:41:36.851Z,96739.34
2023-12-22T05:44:03.711Z,96743.75
2023-12-22T05:46:30.478Z,96731.53
2023-12-22T05:48:58.744Z,96743.25
2023-12-22T05:51:25.446Z,96765.38
2023-12-22T05:53:52.396Z,96781.56
2023-12-22T05:56:19.181Z,96772.94
2023-12-22T05:58:59.776Z,96771.47
2023-12-22T06:01:26.567Z,96757.72
2023-12-22T06:03:53.307Z,96733.72
2023-12-22T06:06:20.153Z,96734.03
2023-12-22T06:08:46.847Z,96730.06
2023-12-22T06:11:14.598Z,96736.22
2023-12-22T06:13:41.276Z,96748.59
2023-12-22T06:16:12.388Z,96755.16
2023-12-22T06:18:39.127Z,96750.75
2023-12-22T06:21:05.818Z,96745.41
2023-12-22T06:23:34.389Z,96754.13
2023-12-22T06:26:01.317Z,96749.97
2023-12-22T06:28:28.104Z,96753.41
2023-12-22T06:30:54.829Z,96773.00
2023-12-22T06:33:23.002Z,96782.16
2023-12-22T06:35:49.873Z,96772.38
2023-12-22T06:38:16.596Z,96780.31
2023-12-22T06:40:43.414Z,96797.78
2023-12-22T06:43:10.152Z,96812.06
2023-12-22T06:45:36.853Z,96802.00
2023-12-22T06:48:04.263Z,96798.03
2023-12-22T06:50:32.518Z,96795.97
2023-12-22T06:53:04.586Z,96779.97
2023-12-22T06:55:37.248Z,96790.28
2023-12-22T06:58:03.912Z,96799.81
2023-12-22T07:00:30.700Z,96807.75
2023-12-22T07:02:57.448Z,96804.69
2023-12-22T07:05:35.148Z,96802.25
2023-12-22T07:08:01.992Z,96797.72
2023-12-22T07:10:28.719Z,96795.53
2023-12-22T07:12:55.538Z,96804.53
2023-12-22T07:15:22.673Z,96807.19
2023-12-22T07:17:49.718Z,96814.00
2023-12-22T07:20:16.816Z,96827.78
2023-12-22T07:22:46.742Z,96833.22
2023-12-22T07:25:14.718Z,96836.72
2023-12-22T07:27:41.897Z,96846.75
2023-12-22T07:30:09.642Z,96846.53
2023-12-22T07:32:36.352Z,96857.38
2023-12-22T07:35:03.287Z,96854.78
2023-12-22T07:37:30.128Z,96856.13
2023-12-22T07:39:59.193Z,96858.72
2023-12-22T07:42:26.399Z,96864.31
2023-12-22T07:44:53.283Z,96861.50
2023-12-22T07:47:20.058Z,96864.09
2023-12-22T07:49:48.024Z,96866.13
2023-12-22T07:52:14.975Z,96872.66
2023-12-22T07:54:41.663Z,96877.66
2023-12-22T07:57:09.725Z,96890.09
2023-12-22T07:59:36.506Z,96901.69
2023-12-22T08:02:03.461Z,96922.50
2023-12-22T08:04:30.234Z,96922.56
2023-12-22T08:06:57.126Z,96942.75
2023-12-22T08:09:23.914Z,96950.88
2023-12-22T08:11:50.600Z,96955.59
2023-12-22T08:14:18.619Z,96959.22
2023-12-22T08:16:45.456Z,96957.47
2023-12-22T08:19:12.202Z,96955.38
2023-12-22T08:21:44.554Z,96962.03
2023-12-22T08:24:19.168Z,96957.25
2023-12-22T08:26:49.523Z,96970.13
2023-12-22T08:29:17.761Z,96963.66
2023-12-22T08:31:44.579Z,96974.34
2023-12-22T08:34:11.277Z,96973.75
2023-12-22T08:36:38.180Z,96966.69
2023-12-22T08:39:05.176Z,96984.78
2023-12-22T08:41:31.985Z,96978.97
2023-12-22T08:43:58.803Z,96980.25
2023-12-22T08:46:26.964Z,96979.22
2023-12-22T08:48:53.638Z,96971.78
2023-12-22T08:51:20.569Z,96998.56
2023-12-22T08:53:47.514Z,96974.31
2023-12-22T08:56:14.338Z,96972.00
2023-12-22T08:58:41.201Z,96978.88
2023-12-22T09:01:07.944Z,96975.25
2023-12-22T09:03:35.958Z,97000.78
2023-12-22T09:06:03.060Z,97003.91
2023-12-22T09:08:29.815Z,97004.25
2023-12-22T09:10:56.587Z,96992.88
2023-12-22T09:13:23.296Z,97003.88
2023-12-22T09:15:50.039Z,96997.53
2023-12-22T09:18:16.731Z,97016.91
2023-12-22T09:20:44.861Z,97000.78
2023-12-22T09:23:11.645Z,96993.13
2023-12-22T09:25:38.364Z,96998.69
2023-12-22T09:28:05.576Z,97011.44
2023-12-22T09:30:32.250Z,97018.06
2023-12-22T09:32:59.042Z,97010.28
2023-12-22T09:35:25.767Z,97014.31
2023-12-22T09:37:54.196Z,97027.13
2023-12-22T09:40:20.901Z,97023.66
2023-12-22T09:42:47.691Z,97018.66
2023-12-22T09:45:14.535Z,97012.84
2023-12-22T09:47:42.353Z,97011.88
2023-12-22T09:50:09.914Z,96998.69
2023-12-22T09:52:36.976Z,97005.66
2023-12-22T09:55:05.705Z,96999.34
2023-12-22T09:57:32.417Z,97009.25
2023-12-22T09:59:59.262Z,97003.91
2023-12-22T10:02:26.845Z,96999.97
2023-12-22T10:04:53.709Z,96991.94
2023-12-22T10:07:20.480Z,96984.84
2023-12-22T10:09:47.485Z,96985.69
2023-12-22T10:12:15.572Z,96980.22
2023-12-22T10:14:42.216Z,96985.56
2023-12-22T10:17:09.132Z,96991.00
2023-12-22T10:19:35.996Z,96983.88
2023-12-22T10:22:03.008Z,96984.78
2023-12-22T10:24:39.225Z,96977.06
2023-12-22T10:27:06.017Z,96972.34
2023-12-22T10:29:34.015Z,96959.84
2023-12-22T10:32:03.223Z,96961.91
2023-12-22T10:34:31.243Z,96956.56
2023-12-22T10:36:57.988Z,96951.88
2023-12-22T10:39:24.717Z,96948.78
2023-12-22T10:41:51.366Z,96945.34
2023-12-22T10:44:18.068Z,96938.19
2023-12-22T10:46:46.062Z,96936.97
2023-12-22T10:49:13.255Z,96936.38
2023-12-22T10:51:39.905Z,96934.44
2023-12-22T10:54:06.724Z,96934.88
2023-12-22T10:56:33.404Z,96930.88
2023-12-22T10:59:00.123Z,96927.63
2023-12-22T11:01:29.456Z,96932.41
2023-12-22T11:03:59.086Z,96923.72
2023-12-22T11:06:26.045Z,96924.66
2023-12-22T11:08:52.742Z,96919.25
2023-12-22T11:11:21.966Z,96914.63
2023-12-22T11:13:48.731Z,96916.13
2023-12-22T11:16:15.402Z,96918.19
2023-12-22T11:18:42.168Z,96921.44
2023-12-22T11:21:10.220Z,96910.78
2023-12-22T11:23:36.961Z,96913.81
2023-12-22T11:26:04.328Z,96930.75
2023-12-22T11:28:31.105Z,96930.38
2023-12-22T11:30:58.817Z,96928.28
2023-12-22T11:33:26.617Z,96922.13
2023-12-22T11:35:53.599Z,96939.91
2023-12-22T11:38:21.653Z,96913.72
2023-12-22T11:40:48.443Z,96915.31
2023-12-22T11:43:15.222Z,96916.81
2023-12-22T11:45:42.535Z,96922.97
2023-12-22T11:48:09.447Z,96909.94
2023-12-22T11:50:36.219Z,96906.59
2023-12-22T11:53:18.904Z,96893.50
2023-12-22T11:56:00.257Z,96918.00
2023-12-22T11:58:40.338Z,96898.34
2023-12-22T12:01:08.200Z,96879.91
2023-12-22T12:03:37.347Z,96882.88
2023-12-22T12:06:17.867Z,96875.13
2023-12-22T12:08:44.829Z,96870.03
2023-12-22T12:11:12.930Z,96886.06
2023-12-22T12:13:43.027Z,96884.13
2023-12-22T12:16:09.755Z,96875.59
2023-12-22T12:18:36.438Z,96873.09
2023-12-22T12:21:03.260Z,96893.63
2023-12-22T12:23:30.053Z,96869.47
2023-12-22T12:25:56.921Z,96862.88
2023-12-22T12:28:27.867Z,96873.09
2023-12-22T12:30:58.407Z,96877.94
2023-12-22T12:33:25.645Z,96873.09
2023-12-22T12:35:54.903Z,96881.53
2023-12-22T12:38:22.758Z,96879.06
2023-12-22T12:40:51.341Z,96875.44
2023-12-22T12:43:18.216Z,96880.44
2023-12-22T12:45:46.564Z,96876.38
2023-12-22T12:48:14.448Z,96864.41
2023-12-22T12:50:41.464Z,96876.38
2023-12-22T12:53:08.418Z,96879.75
2023-12-22T12:55:35.259Z,96863.75
2023-12-22T12:58:01.971Z,96868.50
2023-12-22T13:00:28.920Z,96865.84
2023-12-22T13:02:57.176Z,96867.34
2023-12-22T13:05:23.932Z,96867.78
2023-12-22T13:07:50.949Z,96850.28
2023-12-22T13:10:21.688Z,96858.97
2023-12-22T13:12:48.445Z,96844.31
2023-12-22T13:15:15.182Z,96860.78
2023-12-22T13:17:41.825Z,96847.34
2023-12-22T13:20:11.356Z,96843.72
2023-12-22T13:22:38.196Z,96852.41
2023-12-22T13:25:05.795Z,96848.72
2023-12-22T13:27:32.463Z,96856.81
2023-12-22T13:29:59.265Z,96851.09
2023-12-22T13:32:26.001Z,96860.47
2023-12-22T13:34:53.414Z,96861.31
2023-12-22T13:37:21.457Z,96860.63
2023-12-22T13:39:48.270Z,96877.53
2023-12-22T13:42:15.812Z,96889.94
2023-12-22T13:44:44.118Z,96864.63
2023-12-22T13:47:10.939Z,96864.28
2023-12-22T13:49:37.697Z,96864.78
2023-12-22T13:52:04.982Z,96865.28
2023-12-22T13:54:34.304Z,96855.47
2023-12-22T13:57:00.942Z,96836.84
2023-12-22T13:59:33.920Z,96841.66
2023-12-22T14:02:00.702Z,96844.31
2023-12-22T14:04:27.402Z,96856.59
2023-12-22T14:06:54.177Z,96845.56
2023-12-22T14:09:20.844Z,96859.00
2023-12-22T14:11:53.993Z,96887.81
2023-12-22T14:14:28.560Z,96876.16
2023-12-22T14:16:55.323Z,96878.25
2023-12-22T14:19:22.083Z,96882.81
2023-12-22T14:21:48.793Z,96883.69
2023-12-22T14:24:15.565Z,96880.38
2023-12-22T14:27:01.501Z,96882.03
2023-12-22T14:29:28.204Z,96872.94
2023-12-22T14:31:54.932Z,96879.66
2023-12-22T14:34:21.738Z,96880.06
2023-12-22T14:36:48.477Z,96877.78
2023-12-22T14:39:15.239Z,96884.22
2023-12-22T14:41:41.987Z,96883.84
2023-12-22T14:44:10.359Z,96887.47
2023-12-22T14:46:39.926Z,96881.22
2023-12-22T14:49:06.667Z,96885.03
2023-12-22T14:51:36.238Z,96885.84
2023-12-22T14:54:02.941Z,96887.00
2023-12-22T14:56:29.610Z,96890.03
2023-12-22T14:58:56.359Z,96893.91
2023-12-22T15:01:24.399Z,96899.81
2023-12-22T15:03:51.094Z,96897.34
2023-12-22T15:06:17.945Z,96889.31
2023-12-22T15:08:44.858Z,96889.47
2023-12-22T15:11:11.657Z,96885.50
2023-12-22T15:13:39.410Z,96886.28
2023-12-22T15:16:06.707Z,96898.09
2023-12-22T15:18:34.681Z,96903.25
2023-12-22T15:21:01.398Z,96893.47
2023-12-22T15:23:28.064Z,96901.13
2023-12-22T15:25:54.806Z,96886.72
2023-12-22T15:28:21.531Z,96894.28
2023-12-22T15:30:48.197Z,96891.13
2023-12-22T15:33:14.921Z,96878.47
2023-12-22T15:35:43.014Z,96908.22
2023-12-22T15:38:09.713Z,96909.13
2023-12-22T15:40:36.462Z,96913.44
2023-12-22T15:43:03.338Z,96913.06
2023-12-22T15:45:30.001Z,96903.97
2023-12-22T15:47:56.861Z,96920.84
2023-12-22T15:50:23.626Z,96929.19
2023-12-22T15:52:51.976Z,96932.03
2023-12-22T15:55:18.824Z,96939.41
2023-12-22T15:57:45.511Z,96936.41
2023-12-22T16:00:13.587Z,96934.78
2023-12-22T16:02:40.268Z,96932.19
2023-12-22T16:05:07.951Z,96935.25
2023-12-22T16:07:35.844Z,96945.31
2023-12-22T16:10:04.732Z,96928.94
2023-12-22T16:12:31.389Z,96964.97
2023-12-22T16:14:58.138Z,96933.56
2023-12-22T16:17:24.916Z,96947.53
2023-12-22T16:19:51.709Z,96943.53
2023-12-22T16:22:18.503Z,96941.47
2023-12-22T16:24:45.209Z,96935.44
2023-12-22T16:27:13.261Z,96948.56
2023-12-22T16:29:40.243Z,96940.56
2023-12-22T16:32:07.349Z,96928.34
2023-12-22T16:34:34.124Z,96932.13
2023-12-22T16:37:00.843Z,96949.41
2023-12-22T16:39:27.599Z,96942.13
2023-12-22T16:41:54.303Z,96961.16
2023-12-22T16:44:22.438Z,96956.22
2023-12-22T16:46:49.181Z,96971.00
2023-12-22T16:49:15.951Z,96972.41
2023-12-22T16:51:42.741Z,96971.94
2023-12-22T16:54:09.515Z,96970.84
2023-12-22T16:56:36.627Z,96987.03
2023-12-22T16:59:03.382Z,96990.97
2023-12-22T17:01:39.264Z,96999.34
2023-12-22T17:04:10.023Z,96996.81
2023-12-22T17:06:47.008Z,97006.47
2023-12-22T17:09:14.247Z,97002.09
2023-12-22T17:11:41.061Z,97003.72
2023-12-22T17:14:07.898Z,97000.59
2023-12-22T17:16:36.018Z,96994.78
2023-12-22T17:19:02.762Z,96998.72
2023-12-22T17:21:29.431Z,97010.19
2023-12-22T17:23:56.204Z,97009.03
2023-12-22T17:26:23.013Z,97013.00
2023-12-22T17:28:49.891Z,97028.97
2023-12-22T17:31:16.738Z,97020.22
2023-12-22T17:33:44.895Z,97036.09
2023-12-22T17:36:11.654Z,97038.78
2023-12-22T17:38:38.406Z,97027.75
2023-12-22T17:41:05.377Z,97031.50
2023-12-22T17:43:32.125Z,97025.69
2023-12-22T17:45:58.890Z,97033.69
2023-12-22T17:48:25.760Z,97020.69
2023-12-22T17:50:53.992Z,97020.47
2023-12-22T17:53:20.694Z,97010.59
2023-12-22T17:55:47.430Z,97010.59
2023-12-22T17:58:14.114Z,97016.69
2023-12-22T18:00:40.946Z,97010.94
2023-12-22T18:03:07.765Z,97016.44
2023-12-22T18:05:34.544Z,97032.78
2023-12-22T18:08:03.697Z,97032.25
2023-12-22T18:10:30.635Z,97038.91
2023-12-22T18:12:57.384Z,97045.88
2023-12-22T18:15:24.289Z,97052.81
2023-12-22T18:17:51.145Z,97066.44
2023-12-22T18:20:18.429Z,97072.56
2023-12-22T18:22:45.176Z,97073.84
2023-12-22T18:25:13.385Z,97110.53
2023-12-22T18:27:40.221Z,97120.72
2023-12-22T18:30:07.940Z,97116.88
2023-12-22T18:32:34.736Z,97125.47
2023-12-22T18:35:01.579Z,97136.97
2023-12-22T18:37:28.423Z,97139.53
2023-12-22T18:39:55.120Z,97149.25
2023-12-22T18:42:23.188Z,97151.44
2023-12-22T18:44:49.886Z,97150.06
2023-12-22T18:47:16.618Z,97149.91
2023-12-22T18:49:43.370Z,97161.25
2023-12-22T18:52:10.172Z,97155.13
2023-12-22T18:54:36.884Z,97167.13
2023-12-22T18:57:04.029Z,97162.03
2023-12-22T18:59:32.042Z,97163.53
2023-12-22T19:02:15.232Z,97164.03
2023-12-22T19:04:45.552Z,97164.50
2023-12-22T19:07:12.437Z,97165.88
2023-12-22T19:09:39.154Z,97177.03
2023-12-22T19:12:06.619Z,97179.69
2023-12-22T19:14:34.963Z,97184.09
2023-12-22T19:17:01.697Z,97188.41
2023-12-22T19:19:28.753Z,97196.19
2023-12-22T19:21:55.559Z,97194.22
2023-12-22T19:24:22.284Z,97193.75
2023-12-22T19:26:49.206Z,97207.81
2023-12-22T19:29:16.331Z,97202.94
2023-12-22T19:31:44.423Z,97201.06
2023-12-22T19:34:11.140Z,97201.88
2023-12-22T19:36:37.808Z,97203.16
2023-12-22T19:39:04.523Z,97208.50
2023-12-22T19:41:31.243Z,97206.06
2023-12-22T19:43:57.981Z,97221.16
2023-12-22T19:46:24.659Z,97220.22
2023-12-22T19:48:52.796Z,97217.78
2023-12-22T19:51:19.536Z,97220.94
2023-12-22T19:53:46.247Z,97220.13
2023-12-22T19:56:12.955Z,97216.97
2023-12-22T19:58:39.772Z,97219.06
2023-12-22T20:01:06.665Z,97228.47
2023-12-22T20:03:33.490Z,97218.13
2023-12-22T20:06:01.623Z,97227.19
2023-12-22T20:08:28.376Z,97229.72
2023-12-22T20:10:55.262Z,97245.75
2023-12-22T20:13:22.057Z,97239.25
2023-12-22T20:15:48.819Z,97244.72
2023-12-22T20:18:15.676Z,97252.16
2023-12-22T20:20:42.637Z,97252.16
2023-12-22T20:23:13.181Z,97241.16
2023-12-22T20:25:40.090Z,97249.72
2023-12-22T20:28:06.806Z,97246.34
2023-12-22T20:30:33.581Z,97235.25
2023-12-22T20:33:00.412Z,97225.75
2023-12-22T20:35:27.168Z,97233.28
2023-12-22T20:37:54.150Z,97241.88
2023-12-22T20:40:22.387Z,97235.25
2023-12-22T20:42:49.182Z,97223.00
2023-12-22T20:45:15.921Z,97220.56
2023-12-22T20:47:43.065Z,97240.53
2023-12-22T20:50:10.197Z,97236.34
2023-12-22T20:52:37.316Z,97232.97
2023-12-22T20:55:04.780Z,97229.97
2023-12-22T20:57:35.494Z,97235.50
2023-12-22T21:00:02.741Z,97239.03
2023-12-22T21:02:29.468Z,97241.81
2023-12-22T21:04:58.455Z,97236.72
2023-12-22T21:07:25.707Z,97242.19
2023-12-22T21:09:52.723Z,97245.91
2023-12-22T21:12:19.521Z,97256.44
2023-12-22T21:14:49.796Z,97263.28
2023-12-22T21:17:17.771Z,97265.34
2023-12-22T21:19:44.929Z,97265.59
2023-12-22T21:22:12.315Z,97258.47
2023-12-22T21:24:39.151Z,97273.41
2023-12-22T21:27:05.931Z,97271.50
2023-12-22T21:29:33.006Z,97277.56
2023-12-22T21:32:01.320Z,97281.63
2023-12-22T21:34:28.071Z,97276.63
2023-12-22T21:36:55.083Z,97280.72
2023-12-22T21:39:25.107Z,97283.38
2023-12-22T21:41:51.847Z,97289.69
2023-12-22T21:44:21.753Z,97281.09
2023-12-22T21:46:48.842Z,97276.47
2023-12-22T21:49:17.494Z,97269.31
2023-12-22T21:51:44.255Z,97268.03
2023-12-22T21:54:12.875Z,97275.00
2023-12-22T21:56:39.997Z,97271.00
2023-12-22T21:59:06.889Z,97279.50
2023-12-22T22:01:33.699Z,97272.97
2023-12-22T22:04:00.721Z,97276.38
2023-12-22T22:06:29.012Z,97279.28
2023-12-22T22:08:55.686Z,97275.78
2023-12-22T22:11:22.461Z,97276.00
2023-12-22T22:13:49.404Z,97283.44
2023-12-22T22:16:16.250Z,97280.00
2023-12-22T22:18:43.126Z,97284.59
2023-12-22T22:21:09.947Z,97293.28
2023-12-22T22:23:38.012Z,97287.09
2023-12-22T22:26:04.796Z,97286.78
2023-12-22T22:28:31.602Z,97278.34
2023-12-22T22:30:58.361Z,97277.66
2023-12-22T22:33:25.043Z,97288.34
2023-12-22T22:35:51.774Z,97280.09
2023-12-22T22:38:18.700Z,97283.50
2023-12-22T22:40:46.782Z,97293.16
2023-12-22T22:43:13.469Z,97288.75
2023-12-22T22:45:40.173Z,97295.13
2023-12-22T22:48:07.790Z,97303.38
2023-12-22T22:50:34.542Z,97302.53
2023-12-22T22:53:01.261Z,97304.41
2023-12-22T22:55:27.952Z,97311.16
2023-12-22T22:57:55.966Z,97302.44
2023-12-22T23:00:22.811Z,97308.22
2023-12-22T23:02:49.654Z,97308.81
2023-12-22T23:05:16.501Z,97308.66
2023-12-22T23:07:43.448Z,97305.31
2023-12-22T23:10:10.817Z,97302.41
2023-12-22T23:12:37.557Z,97309.16
2023-12-22T23:15:06.957Z,97308.25
2023-12-22T23:17:33.666Z,97306.59
2023-12-22T23:20:00.407Z,97309.16
2023-12-22T23:22:27.159Z,97312.19
2023-12-22T23:24:53.858Z,97300.31
2023-12-22T23:27:20.640Z,97304.41
2023-12-22T23:29:47.301Z,97308.78
2023-12-22T23:32:15.492Z,97307.28
2023-12-22T23:34:42.257Z,97307.44
2023-12-22T23:37:09.089Z,97308.00
2023-12-22T23:39:35.783Z,97307.34
2023-12-22T23:42:02.550Z,97307.41
2023-12-22T23:44:29.344Z,97303.69
2023-12-22T23:46:56.061Z,97313.81
2023-12-22T23:49:24.119Z,97314.28
2023-12-22T23:51:50.837Z,97316.84
2023-12-22T23:54:17.538Z,97323.00
2023-12-22T23:56:44.213Z,97317.78
2023-12-22T23:59:10.971Z,97314.50
